Time;durP1;ratioP1;P1;durP2;ratioP2;P2;SDS_P1;SDS_P2;PMS_P1;PMS_P2;Temp;Humidity;BMP_temperature;BMP_pressure;BME280_temperature;BME280_humidity;BME280_pressure;Samples;Min_cycle;Max_cycle;Signal;HPM_P1;HPM_P2
2022/03/21 00:02:02;;;;;;;5.85;2.75;;;13.30;47.10;;;;;;4882709;28;20044;-81
2022/03/21 00:04:28;;;;;;;7.20;2.47;;;13.30;47.10;;;;;;4900467;28;20048;-79
2022/03/21 00:06:54;;;;;;;7.60;2.72;;;13.30;47.10;;;;;;4968603;28;20114;-79
2022/03/21 00:09:20;;;;;;;6.85;2.63;;;13.30;47.10;;;;;;5014473;28;20126;-78
2022/03/21 00:11:46;;;;;;;9.07;2.80;;;13.30;47.20;;;;;;4951347;28;20554;-79
2022/03/21 00:14:12;;;;;;;5.82;2.50;;;13.30;47.30;;;;;;4904650;28;20037;-79
2022/03/21 00:16:40;;;;;;;6.47;2.50;;;13.30;47.30;;;;;;4908375;28;20031;-81
2022/03/21 00:19:06;;;;;;;6.55;2.50;;;13.20;47.20;;;;;;4987681;28;20026;-82
2022/03/21 00:21:32;;;;;;;7.95;2.97;;;13.20;47.20;;;;;;4986812;28;20034;-79
2022/03/21 00:23:58;;;;;;;4.78;2.30;;;13.20;47.30;;;;;;4945422;28;20041;-78
2022/03/21 00:26:24;;;;;;;7.90;2.40;;;13.20;47.30;;;;;;4892850;28;20032;-78
2022/03/21 00:28:50;;;;;;;6.80;2.50;;;13.20;47.30;;;;;;4892953;28;20082;-79
2022/03/21 00:31:16;;;;;;;7.63;2.40;;;13.20;47.30;;;;;;4922550;28;20028;-77
2022/03/21 00:33:44;;;;;;;5.22;2.45;;;13.20;47.40;;;;;;4892782;29;20032;-79
2022/03/21 00:36:10;;;;;;;5.65;2.53;;;13.20;47.40;;;;;;4969696;28;20074;-80
2022/03/21 00:38:37;;;;;;;5.47;2.30;;;13.20;47.40;;;;;;4982178;28;20039;-77
2022/03/21 00:41:06;;;;;;;9.13;3.08;;;13.20;47.40;;;;;;4999567;28;20070;-80
2022/03/21 00:43:32;;;;;;;8.00;2.55;;;13.20;47.40;;;;;;4982555;28;20129;-80
2022/03/21 00:45:58;;;;;;;5.25;2.65;;;13.10;47.50;;;;;;4967459;28;20062;-80
2022/03/21 00:48:30;;;;;;;8.40;2.65;;;13.10;47.50;;;;;;4968253;28;20038;-80
2022/03/21 00:50:58;;;;;;;7.30;2.40;;;13.10;47.60;;;;;;4908424;28;20041;-79
2022/03/21 00:53:24;;;;;;;5.55;2.17;;;13.10;47.60;;;;;;4890976;29;20538;-80
2022/03/21 00:55:52;;;;;;;7.68;2.33;;;13.10;47.50;;;;;;4894448;28;20036;-79
2022/03/21 00:58:18;;;;;;;7.15;2.42;;;13.10;47.60;;;;;;4894528;28;20040;-79
2022/03/21 01:00:45;;;;;;;6.45;2.10;;;13.10;47.60;;;;;;4894936;29;20120;-78
2022/03/21 01:03:12;;;;;;;4.70;2.45;;;13.10;47.70;;;;;;4912340;28;20624;-79
2022/03/21 01:05:38;;;;;;;6.43;2.15;;;13.10;47.70;;;;;;4922639;28;20043;-80
2022/03/21 01:08:04;;;;;;;6.90;2.47;;;13.10;47.70;;;;;;4939149;28;20034;-80
2022/03/21 01:10:31;;;;;;;5.95;2.05;;;13.10;47.80;;;;;;5021125;28;20037;-79
2022/03/21 01:12:57;;;;;;;6.63;2.30;;;13.10;47.90;;;;;;5006167;28;20456;-78
2022/03/21 01:15:25;;;;;;;7.10;2.20;;;13.10;48.00;;;;;;5006803;28;20038;-79
2022/03/21 01:17:52;;;;;;;5.68;2.42;;;13.00;47.80;;;;;;4988426;28;20129;-80
2022/03/21 01:20:20;;;;;;;6.68;2.50;;;13.10;47.80;;;;;;5005378;28;20034;-78
2022/03/21 01:22:47;;;;;;;5.07;2.33;;;13.00;47.70;;;;;;5007144;28;20049;-78
2022/03/21 01:25:13;;;;;;;6.50;2.17;;;13.00;47.80;;;;;;5005779;28;20026;-78
2022/03/21 01:27:40;;;;;;;6.53;2.15;;;13.00;47.80;;;;;;5006074;28;20030;-79
2022/03/21 01:30:09;;;;;;;6.85;2.35;;;13.00;47.90;;;;;;5005036;28;20121;-79
2022/03/21 01:32:35;;;;;;;5.65;2.22;;;13.00;47.90;;;;;;5005671;28;20034;-78
2022/03/21 01:35:03;;;;;;;5.45;2.10;;;13.00;47.80;;;;;;5020082;28;20100;-78
2022/03/21 01:37:28;;;;;;;6.28;1.90;;;13.00;47.90;;;;;;5020044;28;20571;-80
2022/03/21 01:39:54;;;;;;;4.78;2.53;;;12.90;47.90;;;;;;5005825;28;20169;-81
2022/03/21 01:42:20;;;;;;;6.07;2.22;;;13.00;47.80;;;;;;5005177;28;20038;-80
2022/03/21 01:44:50;;;;;;;7.55;2.60;;;12.90;47.80;;;;;;5005064;28;20386;-80
2022/03/21 01:47:17;;;;;;;7.85;2.88;;;12.90;47.90;;;;;;4959897;28;20036;-78
2022/03/21 01:49:43;;;;;;;6.70;2.30;;;12.90;48.00;;;;;;4940570;28;20030;-78
2022/03/21 01:52:09;;;;;;;6.15;2.53;;;12.90;48.10;;;;;;5008547;28;20440;-79
2022/03/21 01:57:21;;;;;;;8.25;2.88;;;12.90;48.10;;;;;;4919157;28;20534;-79
2022/03/21 01:59:48;;;;;;;7.78;2.58;;;12.90;48.10;;;;;;4911119;28;20439;-80
2022/03/21 02:02:15;;;;;;;5.40;2.47;;;12.90;48.10;;;;;;4898567;29;20519;-81
2022/03/21 02:04:42;;;;;;;7.10;2.20;;;12.90;48.20;;;;;;4902386;28;20338;-79
2022/03/21 02:07:08;;;;;;;5.68;2.13;;;12.90;48.20;;;;;;4887771;29;20119;-80
2022/03/21 02:09:35;;;;;;;9.32;2.92;;;12.80;48.10;;;;;;4906237;29;20028;-81
2022/03/21 02:12:01;;;;;;;5.10;2.35;;;12.90;48.10;;;;;;4905872;28;20036;-79
2022/03/21 02:14:27;;;;;;;5.53;2.33;;;12.80;48.20;;;;;;4906322;28;20036;-79
2022/03/21 02:16:53;;;;;;;7.50;2.63;;;12.90;48.40;;;;;;4905220;28;20531;-79
2022/03/21 02:19:30;;;;;;;7.93;2.20;;;12.80;48.30;;;;;;4905779;28;20119;-80
2022/03/21 02:22:27;;;;;;;7.72;2.55;;;12.80;48.30;;;;;;4906343;29;20533;-80
2022/03/21 02:25:18;;;;;;;6.35;2.50;;;12.80;48.30;;;;;;4888135;28;20080;-79
2022/03/21 02:27:47;;;;;;;7.53;2.40;;;12.80;48.30;;;;;;4883821;28;20069;-79
2022/03/21 02:30:14;;;;;;;5.80;2.55;;;12.80;48.40;;;;;;4871389;28;20041;-80
2022/03/21 02:32:42;;;;;;;5.95;2.63;;;12.80;48.40;;;;;;4889527;28;20033;-80
2022/03/21 02:35:09;;;;;;;8.57;2.90;;;12.80;48.40;;;;;;4866558;28;20034;-79
2022/03/21 02:37:37;;;;;;;6.93;2.70;;;12.70;48.40;;;;;;4849138;29;20038;-80
2022/03/21 02:40:04;;;;;;;8.10;2.22;;;12.80;48.50;;;;;;4847657;29;20107;-80
2022/03/21 02:42:30;;;;;;;5.93;2.05;;;12.70;48.40;;;;;;4832838;29;20424;-81
2022/03/21 02:44:56;;;;;;;5.65;2.10;;;12.70;48.50;;;;;;4847957;29;20042;-81
2022/03/21 02:47:22;;;;;;;7.82;2.50;;;12.70;48.50;;;;;;4846823;29;20056;-81
2022/03/21 02:49:49;;;;;;;5.47;2.33;;;12.70;48.50;;;;;;4877936;28;20062;-81
2022/03/21 02:52:16;;;;;;;7.75;3.00;;;12.70;48.50;;;;;;4962818;28;20055;-82
2022/03/21 02:54:42;;;;;;;5.93;2.30;;;12.70;48.50;;;;;;4963104;28;20065;-81
2022/03/21 02:57:08;;;;;;;4.50;1.88;;;12.70;48.50;;;;;;4946915;28;20509;-81
2022/03/21 02:59:34;;;;;;;8.30;2.58;;;12.70;48.60;;;;;;4978819;28;20453;-82
2022/03/21 03:02:00;;;;;;;8.10;2.47;;;12.70;48.50;;;;;;5001710;28;20121;-79
2022/03/21 03:04:27;;;;;;;9.60;3.00;;;12.60;48.50;;;;;;5009493;28;20041;-78
2022/03/21 03:06:54;;;;;;;8.48;2.80;;;12.60;48.40;;;;;;4893811;28;20503;-78
2022/03/21 03:09:20;;;;;;;8.70;3.17;;;12.60;48.50;;;;;;5011077;28;20091;-78
2022/03/21 03:11:47;;;;;;;5.63;2.40;;;12.60;48.50;;;;;;4948567;28;20124;-78
2022/03/21 03:14:13;;;;;;;7.68;2.70;;;12.60;48.60;;;;;;4948211;28;20116;-77
2022/03/21 03:16:39;;;;;;;8.10;2.78;;;12.60;48.60;;;;;;5003877;28;20493;-80
2022/03/21 03:19:05;;;;;;;6.30;2.13;;;12.50;48.50;;;;;;5007654;28;20064;-80
2022/03/21 03:21:40;;;;;;;8.60;2.70;;;12.50;48.50;;;;;;4910803;28;20036;-80
2022/03/21 03:24:09;;;;;;;7.40;2.72;;;12.50;48.50;;;;;;4908205;29;20415;-77
2022/03/21 03:26:35;;;;;;;6.72;2.22;;;12.50;48.50;;;;;;4963812;28;20034;-77
2022/03/21 03:29:02;;;;;;;10.75;3.13;;;12.50;48.50;;;;;;5006268;28;20411;-78
2022/03/21 03:31:28;;;;;;;7.90;2.78;;;12.40;48.50;;;;;;5007941;28;20030;-77
2022/03/21 03:33:54;;;;;;;8.55;2.75;;;12.40;48.50;;;;;;5008076;28;20040;-88
2022/03/21 03:36:21;;;;;;;8.77;2.70;;;12.40;48.50;;;;;;5007623;28;20049;-84
2022/03/21 03:38:47;;;;;;;7.72;2.78;;;12.40;48.60;;;;;;5008990;28;20038;-87
2022/03/21 03:41:15;;;;;;;5.72;2.33;;;12.40;48.80;;;;;;5008903;28;20041;-85
2022/03/21 03:43:43;;;;;;;8.98;3.05;;;12.40;48.90;;;;;;5008508;28;20046;-83
2022/03/21 03:46:09;;;;;;;7.22;2.45;;;12.40;48.90;;;;;;5023945;28;20084;-83
2022/03/21 03:48:36;;;;;;;5.88;2.30;;;12.40;48.90;;;;;;4991704;28;20037;-84
2022/03/21 03:51:06;;;;;;;6.78;2.25;;;12.40;49.00;;;;;;5008898;28;20057;-84
2022/03/21 03:53:33;;;;;;;5.18;2.63;;;12.30;49.00;;;;;;5010839;28;20421;-85
2022/03/21 03:55:59;;;;;;;6.78;2.55;;;12.30;49.10;;;;;;5022568;28;20030;-83
2022/03/21 03:58:25;;;;;;;7.47;2.95;;;12.30;49.10;;;;;;5010434;28;20028;-82
2022/03/21 04:00:51;;;;;;;6.32;2.30;;;12.30;49.10;;;;;;5007389;28;20041;-84
2022/03/21 04:06:02;;;;;;;8.60;2.70;;;12.30;49.10;;;;;;5008575;28;20058;-83
2022/03/21 04:08:28;;;;;;;7.63;2.58;;;12.30;49.20;;;;;;5010553;28;20045;-85
2022/03/21 04:10:54;;;;;;;5.75;2.30;;;12.30;49.20;;;;;;5008190;28;20042;-84
2022/03/21 04:13:20;;;;;;;7.28;2.40;;;12.30;49.20;;;;;;5008018;28;20030;-83
2022/03/21 04:15:46;;;;;;;6.82;2.33;;;12.30;49.20;;;;;;5022637;28;20030;-84
2022/03/21 04:18:13;;;;;;;7.68;2.42;;;12.30;49.20;;;;;;5006496;28;20042;-80
2022/03/21 04:20:40;;;;;;;5.72;2.38;;;12.30;49.30;;;;;;4945864;28;20490;-79
2022/03/21 04:23:07;;;;;;;8.25;3.05;;;12.30;49.20;;;;;;4947096;28;20032;-80
2022/03/21 04:25:33;;;;;;;7.38;2.63;;;12.30;49.30;;;;;;4991434;28;20032;-77
2022/03/21 04:28:00;;;;;;;7.05;2.40;;;12.30;49.30;;;;;;4908806;29;20024;-80
2022/03/21 04:30:26;;;;;;;5.65;2.50;;;12.40;49.40;;;;;;5016186;28;20050;-79
2022/03/21 04:32:52;;;;;;;7.40;2.60;;;12.40;49.30;;;;;;5007778;28;20034;-80
2022/03/21 04:35:18;;;;;;;8.60;2.83;;;12.40;49.30;;;;;;4961467;28;20040;-80
2022/03/21 04:37:43;;;;;;;5.85;2.85;;;12.40;49.50;;;;;;4930877;28;20045;-81
2022/03/21 04:40:10;;;;;;;5.32;2.65;;;12.40;49.50;;;;;;4993724;28;20125;-91
2022/03/21 04:42:37;;;;;;;6.72;2.28;;;12.40;49.40;;;;;;4911930;29;20542;-89
2022/03/21 04:45:05;;;;;;;7.68;2.72;;;12.40;49.30;;;;;;4927048;28;20032;-84
2022/03/21 04:47:31;;;;;;;8.75;3.35;;;12.40;49.90;;;;;;4926952;29;20042;-81
2022/03/21 04:49:58;;;;;;;6.72;3.15;;;12.40;49.20;;;;;;4920956;28;20054;-82
2022/03/21 04:52:24;;;;;;;5.65;2.70;;;12.40;49.30;;;;;;4918101;28;20040;-83
2022/03/21 04:54:50;;;;;;;6.03;2.22;;;12.40;49.30;;;;;;5008272;28;20087;-84
2022/03/21 04:57:20;;;;;;;6.70;2.35;;;12.40;49.30;;;;;;5008239;28;20030;-85
2022/03/21 04:59:46;;;;;;;7.63;2.78;;;12.50;49.30;;;;;;5008348;28;20030;-82
2022/03/21 05:02:12;;;;;;;6.28;2.58;;;12.50;49.20;;;;;;5007907;28;20029;-82
2022/03/21 05:04:38;;;;;;;9.05;2.67;;;12.50;49.10;;;;;;5008099;28;20100;-83
2022/03/21 05:07:06;;;;;;;11.38;2.80;;;12.50;49.20;;;;;;5010111;28;20034;-78
2022/03/21 05:09:32;;;;;;;8.80;3.88;;;12.50;49.10;;;;;;5006960;28;20037;-77
2022/03/21 05:11:58;;;;;;;9.82;3.22;;;12.50;49.20;;;;;;5020943;28;20884;-79
2022/03/21 05:14:24;;;;;;;5.90;2.33;;;12.50;49.10;;;;;;5007404;28;20508;-78
2022/03/21 05:16:50;;;;;;;8.10;3.03;;;12.50;49.00;;;;;;5008817;28;20501;-87
2022/03/21 05:19:16;;;;;;;7.78;3.25;;;12.50;48.90;;;;;;5011045;28;20042;-89
2022/03/21 05:21:42;;;;;;;8.93;3.33;;;12.50;48.90;;;;;;5025675;28;20036;-79
2022/03/21 05:32:24;;;;;;;6.97;2.65;;;12.70;49.00;;;;;;5006750;28;20303;-79
2022/03/21 05:37:34;;;;;;;10.35;3.08;;;12.80;48.90;;;;;;5006778;28;20042;-77
2022/03/21 05:42:45;;;;;;;6.90;3.20;;;13.10;48.60;;;;;;4910097;29;20502;-79
2022/03/21 05:45:11;;;;;;;7.25;2.80;;;13.30;48.40;;;;;;4912317;28;20043;-78
2022/03/21 05:48:50;;;;;;;6.93;2.50;;;13.50;48.00;;;;;;4912043;28;20299;-79
2022/03/21 05:50:22;;;;;;;6.43;2.78;;;13.70;47.80;;;;;;4910329;28;20033;-77
2022/03/21 05:52:48;;;;;;;5.68;2.22;;;13.90;48.20;;;;;;4911377;28;20043;-82
2022/03/21 05:55:14;;;;;;;8.55;3.20;;;14.10;47.30;;;;;;4910485;28;20503;-77
2022/03/21 05:57:41;;;;;;;7.63;2.97;;;14.20;47.80;;;;;;4911297;29;20063;-75
2022/03/21 06:00:23;;;;;;;12.25;3.40;;;14.40;49.70;;;;;;4911634;28;20032;-77
2022/03/21 06:02:52;;;;;;;9.25;2.97;;;14.50;49.60;;;;;;4910535;28;20462;-77
2022/03/21 06:05:20;;;;;;;6.95;2.85;;;14.70;49.20;;;;;;4916701;28;20040;-76
2022/03/21 06:07:48;;;;;;;9.50;3.20;;;14.80;49.30;;;;;;4909418;28;20131;-76
2022/03/21 06:10:14;;;;;;;10.60;3.53;;;14.90;49.10;;;;;;4910637;28;20040;-77
2022/03/21 06:12:41;;;;;;;9.23;3.17;;;15.00;49.00;;;;;;4940131;28;20032;-76
2022/03/21 06:15:08;;;;;;;8.57;2.78;;;15.10;48.70;;;;;;4908615;28;20094;-76
2022/03/21 06:17:38;;;;;;;8.75;2.88;;;15.20;48.90;;;;;;4917993;28;20519;-77
2022/03/21 06:20:07;;;;;;;10.07;3.40;;;15.40;48.40;;;;;;4909260;28;20044;-77
2022/03/21 06:22:33;;;;;;;7.80;2.83;;;15.50;48.20;;;;;;4908762;28;20048;-76
2022/03/21 06:24:59;;;;;;;8.95;3.60;;;15.60;48.00;;;;;;4906704;28;20071;-77
2022/03/21 06:27:25;;;;;;;13.35;3.47;;;15.70;47.80;;;;;;4908565;28;20056;-78
2022/03/21 06:29:51;;;;;;;6.97;3.13;;;15.80;47.60;;;;;;4906234;28;20442;-77
2022/03/21 06:32:17;;;;;;;8.65;4.20;;;15.90;47.30;;;;;;4908385;28;20044;-77
2022/03/21 06:34:43;;;;;;;7.95;3.22;;;16.00;47.10;;;;;;4907957;28;20427;-76
2022/03/21 06:37:10;;;;;;;9.65;3.00;;;16.20;46.80;;;;;;4908838;28;20058;-78
2022/03/21 06:39:36;;;;;;;9.43;3.38;;;16.20;46.50;;;;;;4908368;28;20037;-76
2022/03/21 06:42:02;;;;;;;6.45;2.75;;;16.30;46.40;;;;;;4923262;28;20036;-76
2022/03/21 06:44:28;;;;;;;9.05;3.33;;;16.40;46.30;;;;;;4907958;28;20064;-78
2022/03/21 06:46:56;;;;;;;13.18;3.45;;;16.60;46.20;;;;;;4909521;28;20202;-78
2022/03/21 06:49:27;;;;;;;7.10;2.88;;;16.60;45.80;;;;;;4926466;28;20039;-76
2022/03/21 06:51:53;;;;;;;9.57;3.38;;;16.80;45.80;;;;;;4908267;28;20040;-76
2022/03/21 06:54:19;;;;;;;10.50;3.55;;;16.90;45.70;;;;;;4987368;28;20098;-76
2022/03/21 06:56:45;;;;;;;8.80;3.40;;;17.00;45.50;;;;;;4907877;28;20040;-77
2022/03/21 06:59:11;;;;;;;7.20;3.47;;;17.10;45.50;;;;;;4926225;28;20152;-77
2022/03/21 07:01:37;;;;;;;7.95;3.08;;;17.20;45.40;;;;;;4920456;28;20417;-78
2022/03/21 07:04:03;;;;;;;10.10;3.17;;;17.30;45.30;;;;;;4912398;28;20150;-78
2022/03/21 07:06:29;;;;;;;10.90;2.83;;;17.30;45.10;;;;;;4912020;28;20039;-78
2022/03/21 07:08:55;;;;;;;8.00;3.15;;;17.40;45.00;;;;;;4914568;28;20416;-78
2022/03/21 07:11:21;;;;;;;11.55;3.58;;;17.50;44.80;;;;;;4941626;28;20044;-77
2022/03/21 07:13:47;;;;;;;9.60;3.60;;;17.60;44.60;;;;;;4911287;28;20040;-76
2022/03/21 07:16:16;;;;;;;11.52;3.28;;;17.60;44.30;;;;;;4911822;28;20032;-78
2022/03/21 07:18:43;;;;;;;8.73;3.70;;;17.70;44.10;;;;;;4992280;28;20030;-77
2022/03/21 07:21:09;;;;;;;11.85;3.83;;;17.80;44.10;;;;;;4992025;28;20036;-78
2022/03/21 07:23:35;;;;;;;10.75;3.85;;;17.90;44.00;;;;;;4992356;28;20034;-76
2022/03/21 07:26:02;;;;;;;10.75;4.00;;;17.90;43.60;;;;;;4960126;28;20052;-78
2022/03/21 07:28:28;;;;;;;11.93;3.90;;;18.00;43.60;;;;;;4911254;28;20562;-75
2022/03/21 07:30:54;;;;;;;8.55;3.65;;;18.10;43.30;;;;;;5009814;28;20034;-76
2022/03/21 07:33:21;;;;;;;8.45;3.70;;;18.10;43.10;;;;;;5011019;28;20041;-74
2022/03/21 07:35:47;;;;;;;9.38;3.60;;;18.10;43.40;;;;;;5008376;28;20042;-78
2022/03/21 07:38:13;;;;;;;7.95;3.35;;;18.20;44.00;;;;;;4987806;28;20129;-81
2022/03/21 07:40:39;;;;;;;10.23;3.72;;;18.20;43.40;;;;;;4945785;28;20578;-76
2022/03/21 07:43:05;;;;;;;10.73;3.55;;;18.30;43.20;;;;;;4898906;29;20033;-77
2022/03/21 07:48:16;;;;;;;11.38;3.22;;;18.40;42.80;;;;;;5007990;28;20037;-76
2022/03/21 07:50:41;;;;;;;6.90;3.28;;;18.40;42.70;;;;;;5008211;28;20038;-77
2022/03/21 07:53:08;;;;;;;10.43;3.55;;;18.40;42.60;;;;;;5008213;28;20037;-77
2022/03/21 07:55:34;;;;;;;9.02;2.78;;;18.40;42.80;;;;;;4990834;28;20051;-76
2022/03/21 07:58:01;;;;;;;10.90;3.15;;;18.40;42.70;;;;;;4908502;29;20090;-76
2022/03/21 08:00:28;;;;;;;8.70;3.15;;;18.40;42.80;;;;;;5001317;28;20533;-77
2022/03/21 08:02:54;;;;;;;5.25;2.78;;;18.40;42.70;;;;;;5007774;28;20091;-77
2022/03/21 08:05:20;;;;;;;7.68;3.33;;;18.40;42.60;;;;;;5008080;28;20176;-77
2022/03/21 08:07:46;;;;;;;7.22;3.70;;;18.40;42.60;;;;;;5006160;28;20125;-76
2022/03/21 08:10:12;;;;;;;10.48;3.67;;;18.40;42.60;;;;;;5006620;28;20054;-78
2022/03/21 08:12:42;;;;;;;7.35;3.03;;;18.40;42.50;;;;;;5007870;28;20030;-78
2022/03/21 08:15:11;;;;;;;6.80;3.47;;;18.40;42.40;;;;;;5004540;28;20041;-77
2022/03/21 08:17:57;;;;;;;9.30;3.60;;;18.30;42.40;;;;;;5007744;28;20033;-77
2022/03/21 08:20:27;;;;;;;;;;;18.30;42.70;;;;;;5008060;28;20044;-77
2022/03/21 08:22:56;;;;;;;10.23;3.17;;;18.30;42.60;;;;;;5006058;28;19921;-77
2022/03/21 08:25:22;;;;;;;8.10;3.13;;;18.20;42.50;;;;;;5007851;28;20129;-77
2022/03/21 08:27:48;;;;;;;7.40;3.33;;;18.20;42.70;;;;;;5008321;28;20057;-77
2022/03/21 08:30:32;;;;;;;;;;;;;;;;;;;;;
2022/03/21 08:33:15;;;;;;;10.52;3.35;;;18.00;42.80;;;;;;5010960;28;20068;-77
2022/03/21 08:35:41;;;;;;;7.75;3.20;;;18.00;42.60;;;;;;5005266;28;20034;-77
2022/03/21 08:38:09;;;;;;;7.85;2.75;;;18.00;42.80;;;;;;5007715;28;20092;-77
2022/03/21 08:40:36;;;;;;;11.85;4.68;;;18.00;43.10;;;;;;4990334;28;20096;-78
2022/03/21 08:43:03;;;;;;;15.82;5.78;;;17.90;43.10;;;;;;5021594;28;20053;-77
2022/03/21 08:45:29;;;;;;;13.27;4.78;;;17.90;43.00;;;;;;5007574;28;20121;-77
2022/03/21 08:47:55;;;;;;;10.65;4.93;;;17.90;43.00;;;;;;5005402;28;20093;-77
2022/03/21 08:50:21;;;;;;;9.73;4.03;;;17.90;43.10;;;;;;5007331;28;20452;-81
2022/03/21 08:52:47;;;;;;;14.02;4.22;;;17.80;43.10;;;;;;5021996;28;20555;-77
2022/03/21 08:55:13;;;;;;;13.68;4.40;;;17.90;43.50;;;;;;5007150;28;20041;-78
2022/03/21 08:57:39;;;;;;;10.80;3.88;;;17.80;43.70;;;;;;5021835;28;20030;-77
2022/03/21 09:00:07;;;;;;;12.85;3.67;;;17.80;43.60;;;;;;5006901;28;20030;-77
2022/03/21 09:02:34;;;;;;;9.98;3.35;;;17.80;43.90;;;;;;5006567;28;20037;-77
2022/03/21 09:05:01;;;;;;;8.20;3.13;;;17.70;44.10;;;;;;5006354;28;20040;-77
2022/03/21 09:07:27;;;;;;;8.80;3.03;;;17.70;44.00;;;;;;5006729;28;20156;-77
2022/03/21 09:09:53;;;;;;;6.88;2.90;;;17.70;43.90;;;;;;5009541;28;20041;-77
2022/03/21 09:12:19;;;;;;;8.25;2.97;;;17.70;43.60;;;;;;5007062;28;20515;-77
2022/03/21 09:14:45;;;;;;;9.98;2.97;;;17.70;43.10;;;;;;5021035;28;20054;-77
2022/03/21 09:17:11;;;;;;;10.27;2.65;;;17.60;43.20;;;;;;5006950;28;20127;-77
2022/03/21 09:19:37;;;;;;;7.70;2.80;;;17.60;43.80;;;;;;5006901;28;20053;-78
2022/03/21 09:22:03;;;;;;;10.40;2.78;;;17.60;44.10;;;;;;5007240;28;20033;-78
2022/03/21 09:24:29;;;;;;;8.18;2.70;;;17.60;44.00;;;;;;5006894;28;20034;-77
2022/03/21 09:26:55;;;;;;;7.13;2.65;;;17.60;43.90;;;;;;5004468;28;20034;-77
2022/03/21 09:29:21;;;;;;;5.90;2.00;;;17.60;42.80;;;;;;5006328;28;20050;-77
2022/03/21 09:31:48;;;;;;;6.47;2.00;;;17.60;42.30;;;;;;5006482;28;20034;-77
2022/03/21 09:34:16;;;;;;;6.63;2.17;;;17.50;42.00;;;;;;5006474;28;20420;-77
2022/03/21 09:36:42;;;;;;;7.47;2.13;;;17.50;42.40;;;;;;5020996;28;20049;-77
2022/03/21 09:39:08;;;;;;;9.25;2.10;;;17.50;43.10;;;;;;5006373;28;20432;-77
2022/03/21 09:41:35;;;;;;;7.72;2.15;;;17.50;43.40;;;;;;5008135;28;20050;-76
2022/03/21 09:44:07;;;;;;;7.38;2.58;;;17.50;42.80;;;;;;5005851;28;20077;-76
2022/03/21 09:46:33;;;;;;;8.05;2.58;;;17.50;42.50;;;;;;5004961;28;20125;-77
2022/03/21 09:49:02;;;;;;;7.20;1.92;;;17.40;42.20;;;;;;5006276;28;20053;-77
2022/03/21 09:51:30;;;;;;;9.00;2.30;;;17.50;42.40;;;;;;5021367;28;20045;-77
2022/03/21 09:53:58;;;;;;;8.90;2.50;;;17.50;42.40;;;;;;5020876;28;20417;-77
2022/03/21 09:56:25;;;;;;;10.98;2.33;;;17.40;42.40;;;;;;5005920;28;20045;-77
2022/03/21 09:59:01;;;;;;;6.68;2.40;;;17.40;42.20;;;;;;5005958;28;20038;-77
2022/03/21 10:01:31;;;;;;;;;;;17.40;42.30;;;;;;4996172;28;20045;-77
2022/03/21 10:03:58;;;;;;;6.65;1.95;;;17.40;42.00;;;;;;4913400;28;19923;-77
2022/03/21 10:06:33;;;;;;;4.63;1.85;;;17.40;41.60;;;;;;4898051;29;20068;-76
2022/03/21 10:09:21;;;;;;;7.45;2.33;;;17.40;41.30;;;;;;4967334;28;20062;-76
2022/03/21 10:11:58;;;;;;;6.10;1.77;;;17.30;41.10;;;;;;4986126;28;20040;-77
2022/03/21 10:14:33;;;;;;;12.57;2.47;;;17.30;41.30;;;;;;4985825;28;20034;-77
2022/03/21 10:17:09;;;;;;;6.13;1.60;;;17.30;41.00;;;;;;4986697;28;20042;-77
2022/03/21 10:19:48;;;;;;;7.97;2.10;;;17.30;40.90;;;;;;4968653;28;20659;-78
2022/03/21 10:22:16;;;;;;;8.10;2.20;;;17.30;41.00;;;;;;4984972;28;21330;-77
2022/03/21 10:24:45;;;;;;;7.45;2.08;;;17.30;40.80;;;;;;4969347;28;20039;-77
2022/03/21 10:27:31;;;;;;;11.07;5.82;;;17.30;41.30;;;;;;4985662;28;20041;-76
2022/03/21 10:30:04;;;;;;;7.47;2.78;;;17.30;40.90;;;;;;4984918;28;20432;-78
2022/03/21 10:32:34;;;;;;;8.07;3.35;;;17.30;40.30;;;;;;4985649;28;20034;-78
2022/03/21 10:35:07;;;;;;;6.70;2.35;;;17.30;39.90;;;;;;4985239;28;20070;-78
2022/03/21 10:37:43;;;;;;;5.18;1.88;;;17.20;40.30;;;;;;4984965;28;20077;-78
2022/03/21 10:40:45;;;;;;;8.98;2.30;;;17.20;40.20;;;;;;4968420;28;20089;-78
2022/03/21 10:43:15;;;;;;;10.52;2.30;;;17.20;40.30;;;;;;4986298;28;20037;-78
2022/03/21 10:45:51;;;;;;;6.03;2.33;;;17.20;40.40;;;;;;4987682;28;20042;-78
2022/03/21 10:48:19;;;;;;;7.07;2.13;;;17.20;40.20;;;;;;4963165;28;20671;-78
2022/03/21 10:50:47;;;;;;;6.22;2.00;;;17.20;39.90;;;;;;4953245;28;20659;-77
2022/03/21 10:53:17;;;;;;;7.22;2.22;;;17.20;39.90;;;;;;4976322;28;20678;-77
2022/03/21 10:55:45;;;;;;;5.35;2.10;;;17.20;39.70;;;;;;4978191;28;20122;-77
2022/03/21 10:58:13;;;;;;;7.88;2.08;;;17.10;39.30;;;;;;4960480;28;20026;-79
2022/03/21 11:00:39;;;;;;;7.13;2.03;;;17.10;39.70;;;;;;4987129;28;20528;-77
2022/03/21 11:03:09;;;;;;;7.78;1.98;;;17.20;40.20;;;;;;4952727;28;20039;-78
2022/03/21 11:05:43;;;;;;;4.57;1.60;;;17.20;39.60;;;;;;4969466;28;20453;-78
2022/03/21 11:08:13;;;;;;;4.95;1.83;;;17.20;39.60;;;;;;4971081;28;20045;-77
2022/03/21 11:10:39;;;;;;;5.75;2.13;;;17.20;39.70;;;;;;4984644;28;20528;-77
2022/03/21 11:13:08;;;;;;;7.05;2.00;;;17.20;39.40;;;;;;4986791;28;20338;-77
2022/03/21 11:15:36;;;;;;;5.43;1.48;;;17.20;39.50;;;;;;4986838;28;20065;-78
2022/03/21 11:18:03;;;;;;;4.22;1.40;;;17.20;39.30;;;;;;4971957;28;20030;-78
2022/03/21 11:20:30;;;;;;;5.75;1.70;;;17.10;39.40;;;;;;4951951;28;20403;-78
2022/03/21 11:22:57;;;;;;;6.05;1.70;;;17.20;39.80;;;;;;4936110;28;20463;-76
2022/03/21 11:25:31;;;;;;;8.38;1.90;;;17.20;39.60;;;;;;4895918;28;20510;-77
2022/03/21 11:28:18;;;;;;;6.88;2.00;;;17.10;39.50;;;;;;4985156;28;20034;-78
2022/03/21 11:31:03;;;;;;;7.97;1.75;;;17.10;39.20;;;;;;4985171;28;20505;-78
2022/03/21 11:33:39;;;;;;;5.70;2.03;;;17.10;39.20;;;;;;4908429;28;20051;-78
2022/03/21 11:36:10;;;;;;;4.72;1.70;;;17.10;39.40;;;;;;4982061;28;20468;-79
2022/03/21 11:38:41;;;;;;;7.95;2.00;;;17.10;39.30;;;;;;4955175;28;20146;-76
2022/03/21 11:41:13;;;;;;;6.13;2.03;;;17.10;39.20;;;;;;4949106;28;20038;-80
2022/03/21 11:43:40;;;;;;;5.57;2.33;;;17.10;38.70;;;;;;4984174;28;20044;-78
2022/03/21 11:46:29;;;;;;;8.38;2.47;;;17.00;38.70;;;;;;4909562;28;20040;-77
2022/03/21 11:49:00;;;;;;;6.32;2.38;;;17.00;38.90;;;;;;4888045;28;20842;-79
2022/03/21 11:51:43;;;;;;;6.30;1.88;;;17.00;39.00;;;;;;4999522;28;20460;-78
2022/03/21 11:54:34;;;;;;;5.30;1.95;;;17.00;38.90;;;;;;4927940;28;20179;-78
2022/03/21 11:57:04;;;;;;;13.23;2.17;;;17.00;39.00;;;;;;4909911;28;20089;-79
2022/03/21 11:59:33;;;;;;;8.50;2.15;;;17.00;39.10;;;;;;4948249;28;20045;-80
2022/03/21 12:02:24;;;;;;;9.55;2.30;;;17.00;39.30;;;;;;4989740;28;20139;-79
2022/03/21 12:04:58;;;;;;;7.28;2.00;;;17.00;39.50;;;;;;4986455;28;20153;-79
2022/03/21 12:07:24;;;;;;;8.35;2.15;;;17.00;39.20;;;;;;5003635;28;20483;-79
2022/03/21 12:09:52;;;;;;;7.35;1.88;;;17.00;39.20;;;;;;4988881;28;20030;-79
2022/03/21 12:12:19;;;;;;;8.10;2.10;;;17.00;39.50;;;;;;4988133;28;20794;-79
2022/03/21 12:14:46;;;;;;;7.05;2.17;;;17.00;39.70;;;;;;4987835;28;20088;-78
2022/03/21 12:17:12;;;;;;;5.70;2.10;;;17.10;39.90;;;;;;4988782;28;20038;-79
2022/03/21 12:19:55;;;;;;;5.93;1.75;;;17.00;39.80;;;;;;4967307;28;20057;-79
2022/03/21 12:25:13;;;;;;;5.80;1.90;;;17.10;39.70;;;;;;4988676;28;20080;-79
2022/03/21 12:27:42;;;;;;;6.50;1.70;;;17.00;39.70;;;;;;4974894;28;20042;-79
2022/03/21 12:30:32;;;;;;;6.43;1.95;;;17.00;39.30;;;;;;4991162;28;20035;-78
2022/03/21 12:33:09;;;;;;;7.78;2.15;;;17.00;39.20;;;;;;4988100;28;20054;-78
2022/03/21 12:35:39;;;;;;;4.25;1.80;;;17.00;39.00;;;;;;4988758;28;20035;-79
2022/03/21 12:38:23;;;;;;;10.43;2.38;;;17.00;38.80;;;;;;4980528;28;20548;-79
2022/03/21 12:41:00;;;;;;;6.82;1.80;;;17.00;39.20;;;;;;5002648;28;20045;-78
2022/03/21 12:43:30;;;;;;;4.50;1.42;;;17.00;39.20;;;;;;4987794;28;20168;-78
2022/03/21 12:46:18;;;;;;;9.95;2.15;;;17.00;39.30;;;;;;4988808;28;20177;-78
2022/03/21 12:48:46;;;;;;;7.70;2.08;;;17.00;39.30;;;;;;4974060;28;20092;-78
2022/03/21 12:51:15;;;;;;;9.48;2.10;;;17.00;39.10;;;;;;4989062;28;20042;-78
2022/03/21 12:53:45;;;;;;;6.63;2.00;;;17.00;39.10;;;;;;4988685;28;20039;-78
2022/03/21 12:56:16;;;;;;;8.15;2.38;;;17.00;39.20;;;;;;4987098;28;20062;-79
2022/03/21 12:58:47;;;;;;;5.93;1.95;;;17.00;39.00;;;;;;4987564;28;20536;-77
2022/03/21 13:01:14;;;;;;;6.13;2.10;;;17.00;39.00;;;;;;5001544;28;20413;-79
2022/03/21 13:03:41;;;;;;;8.05;1.83;;;17.00;39.10;;;;;;4986676;28;20026;-79
2022/03/21 13:11:40;;;;;;;8.35;2.28;;;16.90;39.30;;;;;;4987246;28;20026;-78
2022/03/21 13:14:14;;;;;;;5.93;2.40;;;16.90;39.50;;;;;;4987018;28;20042;-77
2022/03/21 13:16:50;;;;;;;7.68;2.40;;;17.00;39.40;;;;;;4987197;28;20026;-77
2022/03/21 13:19:22;;;;;;;7.10;2.40;;;16.90;39.30;;;;;;4987162;28;20461;-79
2022/03/21 13:22:02;;;;;;;8.23;2.13;;;17.00;39.60;;;;;;4987661;28;20026;-79
2022/03/21 13:24:42;;;;;;;6.25;2.08;;;17.00;39.40;;;;;;4987451;28;20034;-79
2022/03/21 13:27:12;;;;;;;5.25;2.17;;;16.90;39.30;;;;;;4987191;28;20034;-78